sensor_id;sensor_type;location;lat;lon;timestamp;pressure;altitude;pressure_sealevel;temperature;humidity
83183;BME280;73077;49.898;16.450;2024-03-25T00:01:52;95796.31;;;21.77;43.98
83183;BME280;73077;49.898;16.450;2024-03-25T00:04:22;95798.97;;;21.70;44.15
83183;BME280;73077;49.898;16.450;2024-03-25T00:06:49;95799.13;;;21.75;44.10
83183;BME280;73077;49.898;16.450;2024-03-25T00:09:35;95800.59;;;21.71;44.27
83183;BME280;73077;49.898;16.450;2024-03-25T00:12:05;95796.34;;;21.70;43.99
83183;BME280;73077;49.898;16.450;2024-03-25T00:14:35;95792.09;;;21.69;44.04
83183;BME280;73077;49.898;16.450;2024-03-25T00:17:04;95796.78;;;21.67;44.07
83183;BME280;73077;49.898;16.450;2024-03-25T00:19:32;95791.50;;;21.67;44.01
83183;BME280;73077;49.898;16.450;2024-03-25T00:22:02;95785.09;;;21.63;44.08
83183;BME280;73077;49.898;16.450;2024-03-25T00:24:48;95778.78;;;21.64;44.03
83183;BME280;73077;49.898;16.450;2024-03-25T00:27:17;95788.91;;;21.60;44.01
83183;BME280;73077;49.898;16.450;2024-03-25T00:29:44;95773.94;;;21.61;44.15
83183;BME280;73077;49.898;16.450;2024-03-25T00:32:14;95777.44;;;21.55;44.32
83183;BME280;73077;49.898;16.450;2024-03-25T00:34:41;95777.84;;;21.52;44.20
83183;BME280;73077;49.898;16.450;2024-03-25T00:37:07;95777.66;;;21.53;44.11
83183;BME280;73077;49.898;16.450;2024-03-25T00:39:33;95779.47;;;21.53;44.26
83183;BME280;73077;49.898;16.450;2024-03-25T00:42:00;95773.06;;;21.49;44.42
83183;BME280;73077;49.898;16.450;2024-03-25T00:44:26;95776.69;;;21.48;44.19
83183;BME280;73077;49.898;16.450;2024-03-25T00:46:51;95779.31;;;21.48;44.44
83183;BME280;73077;49.898;16.450;2024-03-25T00:49:17;95771.44;;;21.48;44.20
83183;BME280;73077;49.898;16.450;2024-03-25T00:51:43;95771.84;;;21.45;44.24
83183;BME280;73077;49.898;16.450;2024-03-25T00:54:30;95772.28;;;21.42;44.32
83183;BME280;73077;49.898;16.450;2024-03-25T00:56:56;95769.66;;;21.42;44.23
83183;BME280;73077;49.898;16.450;2024-03-25T00:59:22;95770.66;;;21.41;44.17
83183;BME280;73077;49.898;16.450;2024-03-25T01:02:08;95770.66;;;21.41;44.45
83183;BME280;73077;49.898;16.450;2024-03-25T01:04:36;95768.84;;;21.41;44.23
83183;BME280;73077;49.898;16.450;2024-03-25T01:07:01;95757.94;;;21.38;44.23
83183;BME280;73077;49.898;16.450;2024-03-25T01:09:27;95764.25;;;21.37;44.23
83183;BME280;73077;49.898;16.450;2024-03-25T01:11:55;95747.22;;;21.39;44.19
83183;BME280;73077;49.898;16.450;2024-03-25T01:14:21;95760.00;;;21.36;44.46
83183;BME280;73077;49.898;16.450;2024-03-25T01:16:46;95756.34;;;21.37;44.05
83183;BME280;73077;49.898;16.450;2024-03-25T01:19:13;95760.78;;;21.36;44.13
83183;BME280;73077;49.898;16.450;2024-03-25T01:21:40;95754.97;;;21.34;44.24
83183;BME280;73077;49.898;16.450;2024-03-25T01:24:08;95753.72;;;21.37;44.14
83183;BME280;73077;49.898;16.450;2024-03-25T01:26:34;95745.22;;;21.35;44.12
83183;BME280;73077;49.898;16.450;2024-03-25T01:29:00;95759.25;;;21.29;44.24
83183;BME280;73077;49.898;16.450;2024-03-25T01:31:26;95748.13;;;21.27;44.13
83183;BME280;73077;49.898;16.450;2024-03-25T01:33:51;95745.88;;;21.30;44.32
83183;BME280;73077;49.898;16.450;2024-03-25T01:36:17;95743.66;;;21.27;44.29
83183;BME280;73077;49.898;16.450;2024-03-25T01:38:44;95747.53;;;21.25;44.38
83183;BME280;73077;49.898;16.450;2024-03-25T01:41:13;95744.94;;;21.18;44.39
83183;BME280;73077;49.898;16.450;2024-03-25T01:43:41;95741.69;;;21.23;44.46
83183;BME280;73077;49.898;16.450;2024-03-25T01:46:07;95747.75;;;21.23;44.49
83183;BME280;73077;49.898;16.450;2024-03-25T01:48:33;95744.09;;;21.24;44.28
83183;BME280;73077;49.898;16.450;2024-03-25T01:51:00;95747.38;;;21.20;44.33
83183;BME280;73077;49.898;16.450;2024-03-25T01:53:29;95747.38;;;21.20;44.42
83183;BME280;73077;49.898;16.450;2024-03-25T01:55:56;95734.66;;;21.17;44.22
83183;BME280;73077;49.898;16.450;2024-03-25T01:58:24;95744.34;;;21.16;44.36
83183;BME280;73077;49.898;16.450;2024-03-25T02:00:53;95737.47;;;21.15;44.36
83183;BME280;73077;49.898;16.450;2024-03-25T02:03:19;95742.72;;;21.15;44.34
83183;BME280;73077;49.898;16.450;2024-03-25T02:05:45;95738.94;;;21.11;44.55
83183;BME280;73077;49.898;16.450;2024-03-25T02:08:11;95740.53;;;21.12;44.43
83183;BME280;73077;49.898;16.450;2024-03-25T02:10:40;95735.66;;;21.16;44.33
83183;BME280;73077;49.898;16.450;2024-03-25T02:13:06;95738.94;;;21.11;44.42
83183;BME280;73077;49.898;16.450;2024-03-25T02:15:33;95740.31;;;21.14;44.27
83183;BME280;73077;49.898;16.450;2024-03-25T02:17:58;95734.91;;;21.08;44.40
83183;BME280;73077;49.898;16.450;2024-03-25T02:20:24;95738.13;;;21.10;44.46
83183;BME280;73077;49.898;16.450;2024-03-25T02:22:51;95738.13;;;21.10;44.25
83183;BME280;73077;49.898;16.450;2024-03-25T02:25:17;95744.78;;;21.06;44.24
83183;BME280;73077;49.898;16.450;2024-03-25T02:27:43;95743.19;;;21.05;44.35
83183;BME280;73077;49.898;16.450;2024-03-25T02:30:10;95740.16;;;21.02;44.35
83183;BME280;73077;49.898;16.450;2024-03-25T02:32:40;95741.78;;;21.03;44.59
83183;BME280;73077;49.898;16.450;2024-03-25T02:35:12;95734.50;;;21.05;44.17
83183;BME280;73077;49.898;16.450;2024-03-25T02:37:40;95736.31;;;21.04;44.37
83183;BME280;73077;49.898;16.450;2024-03-25T02:40:08;95740.59;;;20.99;44.43
83183;BME280;73077;49.898;16.450;2024-03-25T02:42:35;95744.63;;;21.01;44.31
83183;BME280;73077;49.898;16.450;2024-03-25T02:45:05;95739.78;;;20.98;44.34
83183;BME280;73077;49.898;16.450;2024-03-25T02:47:31;95735.56;;;20.97;44.40
83183;BME280;73077;49.898;16.450;2024-03-25T02:49:58;95739.78;;;20.98;44.55
83183;BME280;73077;49.898;16.450;2024-03-25T02:52:27;95740.00;;;20.97;44.54
83183;BME280;73077;49.898;16.450;2024-03-25T02:54:53;95745.47;;;20.95;44.40
83183;BME280;73077;49.898;16.450;2024-03-25T02:57:22;95739.59;;;21.00;44.55
83183;BME280;73077;49.898;16.450;2024-03-25T02:59:48;95737.78;;;20.94;44.26
83183;BME280;73077;49.898;16.450;2024-03-25T03:02:14;95734.56;;;20.92;44.70
83183;BME280;73077;49.898;16.450;2024-03-25T03:04:39;95740.44;;;20.94;44.53
83183;BME280;73077;49.898;16.450;2024-03-25T03:07:07;95745.47;;;20.95;44.32
83183;BME280;73077;49.898;16.450;2024-03-25T03:09:34;95741.03;;;20.89;44.47
83183;BME280;73077;49.898;16.450;2024-03-25T03:11:59;95739.88;;;20.85;44.58
83183;BME280;73077;49.898;16.450;2024-03-25T03:14:25;95738.00;;;20.92;44.53
83183;BME280;73077;49.898;16.450;2024-03-25T03:16:51;95739.06;;;20.85;44.48
83183;BME280;73077;49.898;16.450;2024-03-25T03:19:26;95742.91;;;20.82;44.42
83183;BME280;73077;49.898;16.450;2024-03-25T03:21:52;95742.06;;;20.88;44.29
83183;BME280;73077;49.898;16.450;2024-03-25T03:24:18;95735.78;;;20.89;44.31
83183;BME280;73077;49.898;16.450;2024-03-25T03:26:44;95753.16;;;20.90;44.48
83183;BME280;73077;49.898;16.450;2024-03-25T03:29:10;95742.25;;;20.93;44.48
83183;BME280;73077;49.898;16.450;2024-03-25T03:31:36;95745.28;;;20.90;44.12
83183;BME280;73077;49.898;16.450;2024-03-25T03:34:02;95741.88;;;20.83;44.51
83183;BME280;73077;49.898;16.450;2024-03-25T03:36:28;95745.53;;;20.82;44.43
83183;BME280;73077;49.898;16.450;2024-03-25T03:38:54;95751.97;;;20.86;44.54
83183;BME280;73077;49.898;16.450;2024-03-25T03:41:20;95743.09;;;20.87;44.38
83183;BME280;73077;49.898;16.450;2024-03-25T03:43:46;95743.34;;;20.79;44.62
83183;BME280;73077;49.898;16.450;2024-03-25T03:46:12;95740.28;;;20.82;44.51
83183;BME280;73077;49.898;16.450;2024-03-25T03:48:38;95738.25;;;20.84;44.37
83183;BME280;73077;49.898;16.450;2024-03-25T03:51:07;95747.19;;;20.77;44.57
83183;BME280;73077;49.898;16.450;2024-03-25T03:53:34;95740.13;;;20.77;44.58
83183;BME280;73077;49.898;16.450;2024-03-25T03:56:01;95743.75;;;20.76;44.67
83183;BME280;73077;49.898;16.450;2024-03-25T03:58:28;95751.63;;;20.76;44.64
83183;BME280;73077;49.898;16.450;2024-03-25T04:00:54;95748.00;;;20.77;44.49
83183;BME280;73077;49.898;16.450;2024-03-25T04:03:20;95753.66;;;20.74;44.75
83183;BME280;73077;49.898;16.450;2024-03-25T04:05:46;95755.88;;;20.77;44.40
83183;BME280;73077;49.898;16.450;2024-03-25T04:08:12;95753.66;;;20.74;44.50
83183;BME280;73077;49.898;16.450;2024-03-25T04:10:39;95754.91;;;20.72;44.60
83183;BME280;73077;49.898;16.450;2024-03-25T04:13:06;95754.44;;;20.75;44.52
83183;BME280;73077;49.898;16.450;2024-03-25T04:15:34;95757.31;;;20.73;44.63
83183;BME280;73077;49.898;16.450;2024-03-25T04:18:00;95761.56;;;20.74;44.52
83183;BME280;73077;49.898;16.450;2024-03-25T04:20:28;95763.38;;;20.67;44.67
83183;BME280;73077;49.898;16.450;2024-03-25T04:22:56;95763.59;;;20.66;44.68
83183;BME280;73077;49.898;16.450;2024-03-25T04:25:22;95760.16;;;20.65;44.54
83183;BME280;73077;49.898;16.450;2024-03-25T04:27:48;95765.84;;;20.62;44.78
83183;BME280;73077;49.898;16.450;2024-03-25T04:30:15;95761.19;;;20.64;44.63
83183;BME280;73077;49.898;16.450;2024-03-25T04:32:45;95763.41;;;20.61;44.85
83183;BME280;73077;49.898;16.450;2024-03-25T04:35:13;95768.28;;;20.57;44.86
83183;BME280;73077;49.898;16.450;2024-03-25T04:37:39;95765.03;;;20.55;44.81
83183;BME280;73077;49.898;16.450;2024-03-25T04:40:08;95768.28;;;20.57;44.87
83183;BME280;73077;49.898;16.450;2024-03-25T04:42:34;95767.25;;;20.58;44.82
83183;BME280;73077;49.898;16.450;2024-03-25T04:45:00;95770.72;;;20.52;44.94
83183;BME280;73077;49.898;16.450;2024-03-25T04:47:26;95771.91;;;20.56;44.82
83183;BME280;73077;49.898;16.450;2024-03-25T04:49:52;95769.69;;;20.60;44.74
83183;BME280;73077;49.898;16.450;2024-03-25T04:52:18;95770.50;;;20.60;44.72
83183;BME280;73077;49.898;16.450;2024-03-25T04:54:44;95771.75;;;20.51;44.64
83183;BME280;73077;49.898;16.450;2024-03-25T04:57:11;95784.28;;;20.49;44.82
83183;BME280;73077;49.898;16.450;2024-03-25T04:59:37;95773.13;;;20.60;44.88
83183;BME280;73077;49.898;16.450;2024-03-25T05:02:04;95782.34;;;20.69;44.51
83183;BME280;73077;49.898;16.450;2024-03-25T05:04:30;95790.28;;;21.00;43.96
83183;BME280;73077;49.898;16.450;2024-03-25T05:06:58;95797.19;;;21.39;43.12
83183;BME280;73077;49.898;16.450;2024-03-25T05:09:27;95799.47;;;21.85;42.22
83183;BME280;73077;49.898;16.450;2024-03-25T05:11:52;95809.50;;;22.38;41.21
83183;BME280;73077;49.898;16.450;2024-03-25T05:14:18;95806.56;;;22.89;40.26
83183;BME280;73077;49.898;16.450;2024-03-25T05:16:44;95814.63;;;23.35;39.54
83183;BME280;73077;49.898;16.450;2024-03-25T05:19:10;95812.69;;;23.72;38.88
83183;BME280;73077;49.898;16.450;2024-03-25T05:21:35;95820.06;;;23.93;38.49
83183;BME280;73077;49.898;16.450;2024-03-25T05:24:01;95825.72;;;24.08;38.41
83183;BME280;73077;49.898;16.450;2024-03-25T05:26:27;95827.13;;;24.22;38.21
83183;BME280;73077;49.898;16.450;2024-03-25T05:28:54;95826.31;;;24.33;38.20
83183;BME280;73077;49.898;16.450;2024-03-25T05:31:21;95834.81;;;24.47;38.09
83183;BME280;73077;49.898;16.450;2024-03-25T05:33:47;95846.75;;;24.61;37.74
83183;BME280;73077;49.898;16.450;2024-03-25T05:36:13;95836.06;;;24.68;37.74
83183;BME280;73077;49.898;16.450;2024-03-25T05:38:42;95844.44;;;24.76;37.80
83183;BME280;73077;49.898;16.450;2024-03-25T05:41:08;95846.25;;;24.76;37.69
83183;BME280;73077;49.898;16.450;2024-03-25T05:43:34;95849.84;;;24.70;37.81
83183;BME280;73077;49.898;16.450;2024-03-25T05:46:02;95854.22;;;24.64;38.19
83183;BME280;73077;49.898;16.450;2024-03-25T05:48:28;95852.28;;;24.60;38.10
83183;BME280;73077;49.898;16.450;2024-03-25T05:51:01;95859.28;;;24.54;38.40
83183;BME280;73077;49.898;16.450;2024-03-25T05:53:28;95861.78;;;24.49;38.47
83183;BME280;73077;49.898;16.450;2024-03-25T05:55:55;95866.75;;;24.45;38.55
83183;BME280;73077;49.898;16.450;2024-03-25T05:58:22;95862.59;;;24.38;38.78
83183;BME280;73077;49.898;16.450;2024-03-25T06:00:48;95861.22;;;24.35;38.82
83183;BME280;73077;49.898;16.450;2024-03-25T06:03:15;95865.63;;;24.00;39.30
83183;BME280;73077;49.898;16.450;2024-03-25T06:05:41;95869.72;;;23.73;40.35
83183;BME280;73077;49.898;16.450;2024-03-25T06:08:07;95875.72;;;23.91;39.91
83183;BME280;73077;49.898;16.450;2024-03-25T06:10:43;95876.69;;;23.97;39.71
83183;BME280;73077;49.898;16.450;2024-03-25T06:13:09;95877.69;;;23.96;39.67
83183;BME280;73077;49.898;16.450;2024-03-25T06:15:36;95884.25;;;23.93;39.76
83183;BME280;73077;49.898;16.450;2024-03-25T06:18:01;95881.13;;;23.85;39.78
83183;BME280;73077;49.898;16.450;2024-03-25T06:20:28;95890.97;;;23.78;39.93
83183;BME280;73077;49.898;16.450;2024-03-25T06:22:54;95892.22;;;23.75;39.98
83183;BME280;73077;49.898;16.450;2024-03-25T06:25:20;95896.81;;;23.68;40.16
83183;BME280;73077;49.898;16.450;2024-03-25T06:27:47;95892.88;;;23.59;40.35
83183;BME280;73077;49.898;16.450;2024-03-25T06:30:13;95899.97;;;23.59;40.54
83183;BME280;73077;49.898;16.450;2024-03-25T06:32:58;95903.06;;;23.56;40.30
83183;BME280;73077;49.898;16.450;2024-03-25T06:35:44;95907.41;;;23.50;40.52
83183;BME280;73077;49.898;16.450;2024-03-25T06:38:10;95906.59;;;23.50;40.60
83183;BME280;73077;49.898;16.450;2024-03-25T06:40:37;95907.63;;;23.49;40.53
83183;BME280;73077;49.898;16.450;2024-03-25T06:43:04;95910.34;;;23.42;40.47
83183;BME280;73077;49.898;16.450;2024-03-25T06:45:30;95917.28;;;23.36;40.67
83183;BME280;73077;49.898;16.450;2024-03-25T06:47:56;95913.47;;;23.32;40.61
83183;BME280;73077;49.898;16.450;2024-03-25T06:50:23;95917.59;;;23.28;40.98
83183;BME280;73077;49.898;16.450;2024-03-25T06:52:49;95924.34;;;23.24;40.74
83183;BME280;73077;49.898;16.450;2024-03-25T06:55:16;95927.03;;;23.18;40.91
83183;BME280;73077;49.898;16.450;2024-03-25T06:57:42;95927.84;;;23.18;40.83
83183;BME280;73077;49.898;16.450;2024-03-25T07:00:08;95938.47;;;23.12;40.95
83183;BME280;73077;49.898;16.450;2024-03-25T07:02:42;95947.19;;;23.12;40.98
83183;BME280;73077;49.898;16.450;2024-03-25T07:05:08;95952.97;;;23.03;41.18
83183;BME280;73077;49.898;16.450;2024-03-25T07:07:35;95941.41;;;23.04;41.04
83183;BME280;73077;49.898;16.450;2024-03-25T07:10:01;95948.72;;;23.02;41.06
83183;BME280;73077;49.898;16.450;2024-03-25T07:12:27;95952.19;;;23.02;41.11
83183;BME280;73077;49.898;16.450;2024-03-25T07:14:54;95958.69;;;23.00;40.99
83183;BME280;73077;49.898;16.450;2024-03-25T07:17:19;95959.84;;;23.04;40.98
83183;BME280;73077;49.898;16.450;2024-03-25T07:19:47;95966.38;;;23.01;40.97
83183;BME280;73077;49.898;16.450;2024-03-25T07:22:13;95966.50;;;23.06;40.80
83183;BME280;73077;49.898;16.450;2024-03-25T07:24:39;95965.94;;;23.04;40.95
83183;BME280;73077;49.898;16.450;2024-03-25T07:27:05;95976.63;;;23.09;40.61
83183;BME280;73077;49.898;16.450;2024-03-25T07:29:31;95990.84;;;23.08;40.67
83183;BME280;73077;49.898;16.450;2024-03-25T07:31:57;95989.81;;;23.09;40.65
83183;BME280;73077;49.898;16.450;2024-03-25T07:34:22;95996.69;;;23.10;40.66
83183;BME280;73077;49.898;16.450;2024-03-25T07:36:48;96000.34;;;23.09;40.70
83183;BME280;73077;49.898;16.450;2024-03-25T07:39:14;96009.31;;;23.08;40.76
83183;BME280;73077;49.898;16.450;2024-03-25T07:41:40;96003.28;;;23.01;40.75
83183;BME280;73077;49.898;16.450;2024-03-25T07:44:06;96001.66;;;23.00;40.70
83183;BME280;73077;49.898;16.450;2024-03-25T07:46:32;96007.16;;;22.99;40.88
83183;BME280;73077;49.898;16.450;2024-03-25T07:48:59;96005.97;;;22.95;40.77
83183;BME280;73077;49.898;16.450;2024-03-25T07:51:24;96008.59;;;22.95;40.86
83183;BME280;73077;49.898;16.450;2024-03-25T07:53:50;96016.94;;;22.92;40.96
83183;BME280;73077;49.898;16.450;2024-03-25T07:56:16;96028.16;;;22.87;40.99
83183;BME280;73077;49.898;16.450;2024-03-25T07:58:42;96027.84;;;22.77;41.20
83183;BME280;73077;49.898;16.450;2024-03-25T08:01:09;96025.13;;;22.84;41.33
83183;BME280;73077;49.898;16.450;2024-03-25T08:03:36;96019.06;;;22.83;41.08
83183;BME280;73077;49.898;16.450;2024-03-25T08:06:01;96024.31;;;22.83;41.07
83183;BME280;73077;49.898;16.450;2024-03-25T08:08:28;96023.34;;;22.77;41.07
83183;BME280;73077;49.898;16.450;2024-03-25T08:10:54;96029.66;;;22.76;41.17
83183;BME280;73077;49.898;16.450;2024-03-25T08:13:21;96029.28;;;22.73;41.16
83183;BME280;73077;49.898;16.450;2024-03-25T08:15:49;96031.09;;;22.72;41.09
83183;BME280;73077;49.898;16.450;2024-03-25T08:18:14;96034.78;;;22.71;40.99
83183;BME280;73077;49.898;16.450;2024-03-25T08:20:40;96031.34;;;22.71;41.10
83183;BME280;73077;49.898;16.450;2024-03-25T08:23:07;96035.81;;;22.70;41.20
83183;BME280;73077;49.898;16.450;2024-03-25T08:25:33;96031.34;;;22.71;41.19
83183;BME280;73077;49.898;16.450;2024-03-25T08:27:58;96038.69;;;22.87;40.88
83183;BME280;73077;49.898;16.450;2024-03-25T08:30:25;96037.34;;;23.03;40.57
83183;BME280;73077;49.898;16.450;2024-03-25T08:32:51;96031.50;;;23.19;40.19
83183;BME280;73077;49.898;16.450;2024-03-25T08:35:18;96034.22;;;23.30;40.00
83183;BME280;73077;49.898;16.450;2024-03-25T08:37:43;96036.00;;;23.36;40.02
83183;BME280;73077;49.898;16.450;2024-03-25T08:40:09;96037.59;;;23.37;39.99
83183;BME280;73077;49.898;16.450;2024-03-25T08:42:35;96038.63;;;23.36;39.98
83183;BME280;73077;49.898;16.450;2024-03-25T08:45:01;96044.34;;;23.33;39.99
83183;BME280;73077;49.898;16.450;2024-03-25T08:47:27;96049.03;;;23.31;40.06
83183;BME280;73077;49.898;16.450;2024-03-25T08:49:52;96059.59;;;23.31;40.09
83183;BME280;73077;49.898;16.450;2024-03-25T08:52:18;96064.69;;;23.26;40.28
83183;BME280;73077;49.898;16.450;2024-03-25T08:54:44;96064.91;;;23.25;40.29
83183;BME280;73077;49.898;16.450;2024-03-25T08:57:10;96062.13;;;23.20;40.45
83183;BME280;73077;49.898;16.450;2024-03-25T08:59:35;96070.63;;;23.22;40.41
83183;BME280;73077;49.898;16.450;2024-03-25T09:02:01;96071.50;;;23.16;40.47
83183;BME280;73077;49.898;16.450;2024-03-25T09:04:27;96069.88;;;23.15;40.46
83183;BME280;73077;49.898;16.450;2024-03-25T09:06:53;96069.50;;;23.11;40.60
83183;BME280;73077;49.898;16.450;2024-03-25T09:09:18;96072.34;;;23.10;40.66
83183;BME280;73077;49.898;16.450;2024-03-25T09:12:03;96067.88;;;23.10;40.70
83183;BME280;73077;49.898;16.450;2024-03-25T09:14:28;96065.91;;;23.06;40.72
83183;BME280;73077;49.898;16.450;2024-03-25T09:16:54;96057.41;;;23.04;40.84
83183;BME280;73077;49.898;16.450;2024-03-25T09:19:21;96058.78;;;23.06;40.56
83183;BME280;73077;49.898;16.450;2024-03-25T09:21:47;96065.69;;;23.07;40.76
83183;BME280;73077;49.898;16.450;2024-03-25T09:24:12;96063.47;;;23.04;40.70
83183;BME280;73077;49.898;16.450;2024-03-25T09:26:38;96048.47;;;23.05;40.70
83183;BME280;73077;49.898;16.450;2024-03-25T09:29:05;96057.41;;;23.04;40.78
83183;BME280;73077;49.898;16.450;2024-03-25T09:31:31;96058.88;;;23.00;40.68
83183;BME280;73077;49.898;16.450;2024-03-25T09:33:57;96062.28;;;23.00;40.68
83183;BME280;73077;49.898;16.450;2024-03-25T09:36:23;96068.22;;;22.96;40.87
83183;BME280;73077;49.898;16.450;2024-03-25T09:38:49;96071.09;;;22.94;40.71
83183;BME280;73077;49.898;16.450;2024-03-25T09:41:16;96065.44;;;22.91;41.01
83183;BME280;73077;49.898;16.450;2024-03-25T09:43:48;96063.19;;;22.94;40.93
83183;BME280;73077;49.898;16.450;2024-03-25T09:46:15;96070.66;;;22.97;40.84
83183;BME280;73077;49.898;16.450;2024-03-25T09:48:42;96073.06;;;22.99;40.71
83183;BME280;73077;49.898;16.450;2024-03-25T09:51:09;96070.59;;;23.04;40.66
83183;BME280;73077;49.898;16.450;2024-03-25T09:53:35;96069.28;;;23.13;40.42
83183;BME280;73077;49.898;16.450;2024-03-25T09:56:01;96081.38;;;23.20;40.25
83183;BME280;73077;49.898;16.450;2024-03-25T09:58:28;96080.84;;;23.36;40.06
83183;BME280;73077;49.898;16.450;2024-03-25T10:00:55;96085.13;;;23.56;39.73
83183;BME280;73077;49.898;16.450;2024-03-25T10:03:23;96072.81;;;23.68;39.60
83183;BME280;73077;49.898;16.450;2024-03-25T10:05:49;96078.38;;;23.78;39.33
83183;BME280;73077;49.898;16.450;2024-03-25T10:08:22;96073.69;;;23.80;39.06
83183;BME280;73077;49.898;16.450;2024-03-25T10:10:48;96080.56;;;23.81;39.35
83183;BME280;73077;49.898;16.450;2024-03-25T10:13:16;96088.78;;;23.73;39.54
83183;BME280;73077;49.898;16.450;2024-03-25T10:15:43;96081.53;;;23.68;39.69
83183;BME280;73077;49.898;16.450;2024-03-25T10:18:11;96091.28;;;23.68;39.70
83183;BME280;73077;49.898;16.450;2024-03-25T10:20:37;96085.88;;;23.63;39.70
83183;BME280;73077;49.898;16.450;2024-03-25T10:23:04;96088.94;;;23.60;39.88
83183;BME280;73077;49.898;16.450;2024-03-25T10:25:31;96108.88;;;23.56;39.98
83183;BME280;73077;49.898;16.450;2024-03-25T10:28:00;96129.59;;;23.52;39.91
83183;BME280;73077;49.898;16.450;2024-03-25T10:30:27;96141.63;;;23.48;39.87
83183;BME280;73077;49.898;16.450;2024-03-25T10:33:02;96137.00;;;23.44;40.12
83183;BME280;73077;49.898;16.450;2024-03-25T10:35:30;96137.03;;;23.37;40.20
83183;BME280;73077;49.898;16.450;2024-03-25T10:38:06;96142.75;;;23.34;40.31
83183;BME280;73077;49.898;16.450;2024-03-25T10:40:35;96136.66;;;23.33;40.25
83183;BME280;73077;49.898;16.450;2024-03-25T10:43:06;96132.81;;;23.29;40.25
83183;BME280;73077;49.898;16.450;2024-03-25T10:45:47;96130.63;;;23.26;40.38
83183;BME280;73077;49.898;16.450;2024-03-25T10:48:27;96128.41;;;23.23;40.41
83183;BME280;73077;49.898;16.450;2024-03-25T10:50:55;96129.03;;;23.25;40.31
83183;BME280;73077;49.898;16.450;2024-03-25T10:53:21;96129.88;;;23.19;40.50
83183;BME280;73077;49.898;16.450;2024-03-25T10:55:52;96127.69;;;23.16;40.49
83183;BME280;73077;49.898;16.450;2024-03-25T10:58:21;96125.03;;;23.16;40.47
83183;BME280;73077;49.898;16.450;2024-03-25T11:00:52;96129.28;;;23.17;40.48
83183;BME280;73077;49.898;16.450;2024-03-25T11:03:25;96119.53;;;23.18;40.32
83183;BME280;73077;49.898;16.450;2024-03-25T11:05:51;96115.88;;;23.19;40.32
83183;BME280;73077;49.898;16.450;2024-03-25T11:08:17;96122.34;;;23.23;40.19
83183;BME280;73077;49.898;16.450;2024-03-25T11:10:44;96121.13;;;23.25;40.12
83183;BME280;73077;49.898;16.450;2024-03-25T11:13:13;96116.13;;;23.35;40.17
83183;BME280;73077;49.898;16.450;2024-03-25T11:15:41;96120.34;;;23.43;39.90
83183;BME280;73077;49.898;16.450;2024-03-25T11:18:14;96117.44;;;23.51;39.87
83183;BME280;73077;49.898;16.450;2024-03-25T11:20:41;96115.41;;;23.53;39.62
83183;BME280;73077;49.898;16.450;2024-03-25T11:23:14;96117.22;;;23.53;39.67
83183;BME280;73077;49.898;16.450;2024-03-25T11:25:41;96119.22;;;23.57;39.69
83183;BME280;73077;49.898;16.450;2024-03-25T11:28:09;96112.69;;;23.60;39.56
83183;BME280;73077;49.898;16.450;2024-03-25T11:30:36;96116.19;;;23.54;39.67
83183;BME280;73077;49.898;16.450;2024-03-25T11:33:03;96117.88;;;23.48;39.81
83183;BME280;73077;49.898;16.450;2024-03-25T11:35:37;96113.69;;;23.41;39.91
83183;BME280;73077;49.898;16.450;2024-03-25T11:38:04;96115.72;;;23.39;40.03
83183;BME280;73077;49.898;16.450;2024-03-25T11:40:30;96110.28;;;23.33;40.12
83183;BME280;73077;49.898;16.450;2024-03-25T11:42:58;96110.28;;;23.33;40.13
83183;BME280;73077;49.898;16.450;2024-03-25T11:45:24;96123.31;;;23.28;40.26
83183;BME280;73077;49.898;16.450;2024-03-25T11:47:50;96114.78;;;23.26;40.26
83183;BME280;73077;49.898;16.450;2024-03-25T11:50:18;96114.44;;;23.23;40.32
83183;BME280;73077;49.898;16.450;2024-03-25T11:52:45;96124.38;;;23.21;40.30
83183;BME280;73077;49.898;16.450;2024-03-25T11:55:16;96127.69;;;23.16;40.39
83183;BME280;73077;49.898;16.450;2024-03-25T11:57:42;96126.63;;;23.17;40.39
83183;BME280;73077;49.898;16.450;2024-03-25T12:00:09;96118.97;;;23.16;40.44
83183;BME280;73077;49.898;16.450;2024-03-25T12:02:43;96118.72;;;23.17;40.16
83183;BME280;73077;49.898;16.450;2024-03-25T12:05:08;96111.84;;;23.16;40.42
83183;BME280;73077;49.898;16.450;2024-03-25T12:07:35;96106.00;;;23.14;40.43
83183;BME280;73077;49.898;16.450;2024-03-25T12:10:02;96108.69;;;23.08;40.50
83183;BME280;73077;49.898;16.450;2024-03-25T12:12:47;96098.94;;;23.08;40.55
83183;BME280;73077;49.898;16.450;2024-03-25T12:15:13;96099.59;;;23.04;40.62
83183;BME280;73077;49.898;16.450;2024-03-25T12:17:40;96098.75;;;23.03;40.56
83183;BME280;73077;49.898;16.450;2024-03-25T12:20:08;96097.38;;;23.01;40.58
83183;BME280;73077;49.898;16.450;2024-03-25T12:22:35;96097.59;;;22.99;40.61
83183;BME280;73077;49.898;16.450;2024-03-25T12:25:03;96088.88;;;22.99;40.61
83183;BME280;73077;49.898;16.450;2024-03-25T12:27:32;96095.13;;;23.04;40.56
83183;BME280;73077;49.898;16.450;2024-03-25T12:29:59;96093.81;;;23.13;40.36
83183;BME280;73077;49.898;16.450;2024-03-25T12:32:43;96096.75;;;23.23;40.11
83183;BME280;73077;49.898;16.450;2024-03-25T12:35:13;96097.28;;;23.32;39.82
83183;BME280;73077;49.898;16.450;2024-03-25T12:37:43;96101.53;;;23.40;39.69
83183;BME280;73077;49.898;16.450;2024-03-25T12:40:11;96108.28;;;23.54;39.54
83183;BME280;73077;49.898;16.450;2024-03-25T12:42:38;96105.78;;;23.59;39.40
83183;BME280;73077;49.898;16.450;2024-03-25T12:45:07;96115.69;;;23.63;39.39
83183;BME280;73077;49.898;16.450;2024-03-25T12:47:33;96118.13;;;23.65;39.45
83183;BME280;73077;49.898;16.450;2024-03-25T12:50:07;96118.94;;;23.65;39.31
83183;BME280;73077;49.898;16.450;2024-03-25T12:52:34;96116.28;;;23.65;39.42